CheckWX is a tool to help pilots better visualize weather data.  It is not intended as a substitute for an official pre-flight weather briefing.

04:40:11 UTC

LFOT TAF
Tours-Val-de-Loire Airport
Tours/Val de Loire (Loire Valley), France
TAF LFOT 222300Z 2300/2324 04004KT CAVOK PROB40 TEMPO 2300/2308 2000 BR PROB30 TEMPO 2301/2307 0600 FG VV///

Mar-23@
00:00 UTC

Mar-23 @ 00:00 UTC

Mar-24@
00:00 UTC

Mar-24 @ 00:00 UTC

TAF LFOT 222300Z 2300/2324 04004KT CAVOK
Wind
  • 040° at 4 KTS
Conditions
No significant weather
Cloud Levels
  • No significant clouds

Mar-23@
00:00 UTC

Mar-23 @ 00:00 UTC

Mar-23@
08:00 UTC

Mar-23 @ 08:00 UTC

PROB40 TEMPO 2300/2308 2000 BR

Temporary - 40% Likelihood

Temporary - 40% Likelihood during this time.

Conditions
Mist

Mar-23@
01:00 UTC

Mar-23 @ 01:00 UTC

Mar-23@
07:00 UTC

Mar-23 @ 07:00 UTC

PROB30 TEMPO 2301/2307 0600 FG VV///

Temporary - 30% Likelihood

Temporary - 30% Likelihood during this time.

Conditions
Fog